createdAt,value
2023-03-15T00:02:12.236Z,18.88
2023-03-15T00:04:39.925Z,18.88
2023-03-15T00:07:07.606Z,18.90
2023-03-15T00:09:35.299Z,18.88
2023-03-15T00:12:02.990Z,18.88
2023-03-15T00:14:31.600Z,18.88
2023-03-15T00:16:59.281Z,18.88
2023-03-15T00:19:28.369Z,18.87
2023-03-15T00:21:56.084Z,18.85
2023-03-15T00:24:25.142Z,18.85
2023-03-15T00:26:52.964Z,18.85
2023-03-15T00:29:20.886Z,18.85
2023-03-15T00:31:48.570Z,18.84
2023-03-15T00:34:16.246Z,18.85
2023-03-15T00:36:45.365Z,18.85
2023-03-15T00:39:15.204Z,18.84
2023-03-15T00:41:45.953Z,18.83
2023-03-15T00:44:13.750Z,18.83
2023-03-15T00:46:41.469Z,18.84
2023-03-15T00:49:09.146Z,18.83
2023-03-15T00:51:37.471Z,18.84
2023-03-15T00:54:06.585Z,18.86
2023-03-15T00:56:34.252Z,18.86
2023-03-15T00:59:01.950Z,18.89
2023-03-15T01:01:30.633Z,18.93
2023-03-15T01:03:58.431Z,18.93
2023-03-15T01:06:26.983Z,18.95
2023-03-15T01:08:55.769Z,18.97
2023-03-15T01:11:26.041Z,18.98
2023-03-15T01:13:53.847Z,18.98
2023-03-15T01:16:21.909Z,18.95
2023-03-15T01:18:51.498Z,18.93
2023-03-15T01:21:19.321Z,18.94
2023-03-15T01:23:47.026Z,18.94
2023-03-15T01:26:15.583Z,18.93
2023-03-15T01:28:44.728Z,18.92
2023-03-15T01:31:16.596Z,18.90
2023-03-15T01:33:44.309Z,18.91
2023-03-15T01:36:12.085Z,18.89
2023-03-15T01:38:39.815Z,18.92
2023-03-15T01:41:07.549Z,18.92
2023-03-15T01:43:35.755Z,18.92
2023-03-15T01:46:25.030Z,18.95
2023-03-15T01:48:56.779Z,18.99
2023-03-15T01:51:26.338Z,19.00
2023-03-15T01:53:55.043Z,19.01
2023-03-15T01:56:23.262Z,19.01
2023-03-15T01:58:51.212Z,19.01
2023-03-15T02:01:21.303Z,19.02
2023-03-15T02:03:51.260Z,19.03
2023-03-15T02:06:19.661Z,19.05
2023-03-15T02:08:50.913Z,19.06
2023-03-15T02:11:20.477Z,19.03
2023-03-15T02:13:48.593Z,19.01
2023-03-15T02:16:16.613Z,19.00
2023-03-15T02:18:45.755Z,18.98
2023-03-15T02:21:18.876Z,18.98
2023-03-15T02:23:47.167Z,18.96
2023-03-15T02:26:18.844Z,18.96
2023-03-15T02:28:47.940Z,18.94
2023-03-15T02:31:15.670Z,18.95
2023-03-15T02:33:44.945Z,18.93
2023-03-15T02:36:17.742Z,18.89
2023-03-15T02:38:45.439Z,18.88
2023-03-15T02:41:13.210Z,18.87
2023-03-15T02:43:40.927Z,18.86
2023-03-15T02:46:10.059Z,18.85
2023-03-15T02:48:37.789Z,18.80
2023-03-15T02:51:05.867Z,18.80
2023-03-15T02:53:33.744Z,18.79
2023-03-15T02:56:01.417Z,18.77
2023-03-15T02:58:29.151Z,18.77
2023-03-15T03:00:56.836Z,18.77
2023-03-15T03:03:25.998Z,18.77
2023-03-15T03:05:53.683Z,18.79
2023-03-15T03:08:21.403Z,18.78
2023-03-15T03:10:49.832Z,18.79
2023-03-15T03:13:17.572Z,18.79
2023-03-15T03:15:45.684Z,18.78
2023-03-15T03:18:13.532Z,18.78
2023-03-15T03:20:46.019Z,18.78
2023-03-15T03:23:13.899Z,18.78
2023-03-15T03:25:41.575Z,18.78
2023-03-15T03:28:09.245Z,18.78
2023-03-15T03:30:37.094Z,18.79
2023-03-15T03:33:04.947Z,18.80
2023-03-15T03:35:32.878Z,18.80
2023-03-15T03:38:01.955Z,18.80
2023-03-15T03:40:29.622Z,18.80
2023-03-15T03:42:57.357Z,18.79
2023-03-15T03:45:25.077Z,18.79
2023-03-15T03:47:53.127Z,18.80
2023-03-15T03:50:22.006Z,18.79
2023-03-15T03:52:49.749Z,18.77
2023-03-15T03:55:19.035Z,18.75
2023-03-15T03:57:46.725Z,18.74
2023-03-15T04:00:15.414Z,18.74
2023-03-15T04:02:43.710Z,18.73
2023-03-15T04:05:11.473Z,18.75
2023-03-15T04:07:39.255Z,18.74
2023-03-15T04:10:07.762Z,18.73
2023-03-15T04:12:36.881Z,18.74
2023-03-15T04:15:05.032Z,18.73
2023-03-15T04:17:32.724Z,18.72
2023-03-15T04:20:05.687Z,18.73
2023-03-15T04:22:34.744Z,18.72
2023-03-15T04:25:02.876Z,18.71
2023-03-15T04:27:30.679Z,18.71
2023-03-15T04:29:59.712Z,18.71
2023-03-15T04:32:27.390Z,18.71
2023-03-15T04:34:55.896Z,18.70
2023-03-15T04:37:23.561Z,18.70
2023-03-15T04:39:52.497Z,18.70
2023-03-15T04:42:20.289Z,18.69
2023-03-15T04:44:48.031Z,18.70
2023-03-15T04:47:17.072Z,18.70
2023-03-15T04:49:44.791Z,18.71
2023-03-15T04:52:12.697Z,18.72
2023-03-15T04:54:40.397Z,18.72
2023-03-15T04:57:08.267Z,18.71
2023-03-15T04:59:35.925Z,18.70
2023-03-15T05:02:04.132Z,18.69
2023-03-15T05:04:33.255Z,18.69
2023-03-15T05:07:00.924Z,18.68
2023-03-15T05:09:28.599Z,18.68
2023-03-15T05:11:56.291Z,18.67
2023-03-15T05:14:24.034Z,18.69
2023-03-15T05:16:55.296Z,18.71
2023-03-15T05:19:23.394Z,18.71
2023-03-15T05:21:54.608Z,18.74
2023-03-15T05:24:22.337Z,18.78
2023-03-15T05:26:50.002Z,18.81
2023-03-15T05:29:17.690Z,18.84
2023-03-15T05:31:45.382Z,18.88
2023-03-15T05:34:13.174Z,18.89
2023-03-15T05:36:41.749Z,18.90
2023-03-15T05:39:11.433Z,18.89
2023-03-15T05:41:39.114Z,18.90
2023-03-15T05:44:06.860Z,18.92
2023-03-15T05:46:34.620Z,18.94
2023-03-15T05:49:02.276Z,18.97
2023-03-15T05:51:29.944Z,19.00
2023-03-15T05:53:57.594Z,18.98
2023-03-15T05:56:26.694Z,18.98
2023-03-15T05:58:54.359Z,18.96
2023-03-15T06:01:22.053Z,18.96
2023-03-15T06:03:49.826Z,18.96
2023-03-15T06:06:17.571Z,18.95
2023-03-15T06:08:45.275Z,18.95
2023-03-15T06:11:12.935Z,18.95
2023-03-15T06:13:41.962Z,18.95
2023-03-15T06:16:09.626Z,18.96
2023-03-15T06:18:37.319Z,18.97
2023-03-15T06:21:05.201Z,18.93
2023-03-15T06:23:32.895Z,18.88
2023-03-15T06:26:00.571Z,18.81
2023-03-15T06:28:28.252Z,18.75
2023-03-15T06:30:57.337Z,18.70
2023-03-15T06:33:25.410Z,18.68
2023-03-15T06:35:53.146Z,18.68
2023-03-15T06:38:20.968Z,18.67
2023-03-15T06:40:48.687Z,18.72
2023-03-15T06:43:19.440Z,18.72
2023-03-15T06:45:47.290Z,18.73
2023-03-15T06:48:16.425Z,18.75
2023-03-15T06:50:47.343Z,18.77
2023-03-15T06:53:15.602Z,18.79
2023-03-15T06:55:43.290Z,18.80
2023-03-15T06:58:10.990Z,18.82
2023-03-15T07:00:38.794Z,18.86
2023-03-15T07:03:06.524Z,18.87
2023-03-15T07:05:35.642Z,18.87
2023-03-15T07:08:03.333Z,18.89
2023-03-15T07:10:31.181Z,18.91
2023-03-15T07:12:58.882Z,18.91
2023-03-15T07:15:26.542Z,18.93
2023-03-15T07:17:54.313Z,18.94
2023-03-15T07:20:22.045Z,18.95
2023-03-15T07:22:51.199Z,18.97
2023-03-15T07:25:23.782Z,18.98
2023-03-15T07:27:51.735Z,19.02
2023-03-15T07:30:19.762Z,19.05
2023-03-15T07:32:47.773Z,19.08
2023-03-15T07:35:16.861Z,19.08
2023-03-15T07:37:44.989Z,19.10
2023-03-15T07:40:16.043Z,19.11
2023-03-15T07:42:43.962Z,19.14
2023-03-15T07:45:13.243Z,19.16
2023-03-15T07:47:40.916Z,19.16
2023-03-15T07:50:09.629Z,19.18
2023-03-15T07:52:37.349Z,19.19
2023-03-15T07:55:08.284Z,19.24
2023-03-15T07:57:37.365Z,19.30
2023-03-15T08:00:06.824Z,19.36
2023-03-15T08:02:34.571Z,19.41
2023-03-15T08:05:02.237Z,19.45
2023-03-15T08:07:29.958Z,19.44
2023-03-15T08:09:57.956Z,19.38
2023-03-15T08:12:25.752Z,19.31
2023-03-15T08:14:54.799Z,19.25
2023-03-15T08:17:22.516Z,19.24
2023-03-15T08:19:50.221Z,19.23
2023-03-15T08:22:17.893Z,19.24
2023-03-15T08:24:45.936Z,19.23
2023-03-15T08:27:13.611Z,19.21
2023-03-15T08:29:41.391Z,19.20
2023-03-15T08:32:10.878Z,19.20
2023-03-15T08:34:38.783Z,19.20
2023-03-15T08:37:06.490Z,19.20
2023-03-15T08:39:36.299Z,19.23
2023-03-15T08:42:04.131Z,19.31
2023-03-15T08:44:31.842Z,19.34
2023-03-15T08:46:59.633Z,19.37
2023-03-15T08:49:28.715Z,19.37
2023-03-15T08:51:56.399Z,19.39
2023-03-15T08:54:25.559Z,19.40
2023-03-15T08:56:53.256Z,19.40
2023-03-15T08:59:31.248Z,19.39
2023-03-15T09:02:00.867Z,19.40
2023-03-15T09:04:30.060Z,19.40
2023-03-15T09:06:57.861Z,19.40
2023-03-15T09:09:25.654Z,19.40
2023-03-15T09:11:53.340Z,19.36
2023-03-15T09:14:21.075Z,19.33
2023-03-15T09:16:48.808Z,19.33
2023-03-15T09:19:16.502Z,19.35
2023-03-15T09:21:47.075Z,19.33
2023-03-15T09:24:14.787Z,19.35
2023-03-15T09:26:42.509Z,19.38
2023-03-15T09:29:10.211Z,19.38
2023-03-15T09:31:37.901Z,19.37
2023-03-15T09:34:05.898Z,19.36
2023-03-15T09:36:33.720Z,19.35
2023-03-15T09:39:02.828Z,19.32
2023-03-15T09:41:40.993Z,19.33
2023-03-15T09:44:13.868Z,19.32
2023-03-15T09:46:43.433Z,19.28
2023-03-15T09:49:13.712Z,19.24
2023-03-15T09:51:43.403Z,19.26
2023-03-15T09:54:13.847Z,19.26
2023-03-15T09:56:45.633Z,19.26
2023-03-15T09:59:13.516Z,19.30
2023-03-15T10:01:42.006Z,19.31
2023-03-15T10:04:13.161Z,19.30
2023-03-15T10:06:46.072Z,19.29
2023-03-15T10:09:17.631Z,19.31
2023-03-15T10:11:48.811Z,19.29
2023-03-15T10:14:22.767Z,19.30
2023-03-15T10:16:51.065Z,19.32
2023-03-15T10:19:22.950Z,19.30
2023-03-15T10:21:54.279Z,19.31
2023-03-15T10:24:25.128Z,19.32
2023-03-15T10:26:52.820Z,19.34
2023-03-15T10:29:21.923Z,19.38
2023-03-15T10:31:52.586Z,19.40
2023-03-15T10:34:21.883Z,19.42
2023-03-15T10:36:50.357Z,19.44
2023-03-15T10:39:19.295Z,19.48
2023-03-15T10:41:49.128Z,19.52
2023-03-15T10:44:18.354Z,19.53
2023-03-15T10:47:03.002Z,19.53
2023-03-15T10:49:36.261Z,19.52
2023-03-15T10:52:04.223Z,19.50
2023-03-15T10:54:32.920Z,19.45
2023-03-15T10:57:03.678Z,19.41
2023-03-15T10:59:32.216Z,19.37
2023-03-15T11:02:16.444Z,19.36
2023-03-15T11:04:44.313Z,19.39
2023-03-15T11:07:14.036Z,19.37
2023-03-15T11:09:42.633Z,19.34
2023-03-15T11:12:12.267Z,19.36
2023-03-15T11:14:41.131Z,19.38
2023-03-15T11:17:12.737Z,19.41
2023-03-15T11:19:42.808Z,19.45
2023-03-15T11:22:12.292Z,19.46
2023-03-15T11:24:40.070Z,19.47
2023-03-15T11:27:13.857Z,19.48
2023-03-15T11:29:41.745Z,19.49
2023-03-15T11:32:13.688Z,19.43
2023-03-15T11:34:43.286Z,19.32
2023-03-15T11:37:15.430Z,19.21
2023-03-15T11:39:46.230Z,19.14
2023-03-15T11:42:22.069Z,19.16
2023-03-15T11:44:51.063Z,19.27
2023-03-15T11:47:24.618Z,19.30
2023-03-15T11:49:53.025Z,19.32
2023-03-15T11:52:21.789Z,19.34
2023-03-15T11:54:49.487Z,19.36
2023-03-15T11:57:43.817Z,19.39
2023-03-15T12:00:26.969Z,19.43
2023-03-15T12:02:55.613Z,19.43
2023-03-15T12:05:44.529Z,19.42
2023-03-15T12:08:25.115Z,19.41
2023-03-15T12:10:53.400Z,19.42
2023-03-15T12:13:24.734Z,19.45
2023-03-15T12:15:53.145Z,19.47
2023-03-15T12:18:34.505Z,19.44
2023-03-15T12:21:23.393Z,19.46
2023-03-15T12:23:58.898Z,19.46
2023-03-15T12:26:28.422Z,19.49
2023-03-15T12:29:09.712Z,19.51
2023-03-15T12:31:55.584Z,19.48
2023-03-15T12:34:38.260Z,19.51
2023-03-15T12:37:07.782Z,19.51
2023-03-15T12:39:41.507Z,19.57
2023-03-15T12:42:14.179Z,19.61
2023-03-15T12:44:43.790Z,19.62
2023-03-15T12:47:11.552Z,19.66
2023-03-15T12:49:41.231Z,19.64
2023-03-15T12:52:26.725Z,19.65
2023-03-15T12:54:56.541Z,19.69
2023-03-15T12:57:25.670Z,19.73
2023-03-15T12:59:56.059Z,19.74
2023-03-15T13:02:41.740Z,19.80
2023-03-15T13:05:17.969Z,19.72
2023-03-15T13:07:55.880Z,19.69
2023-03-15T13:10:38.250Z,19.70
2023-03-15T13:13:11.239Z,19.73
2023-03-15T13:15:43.036Z,19.75
2023-03-15T13:18:18.029Z,19.75
2023-03-15T13:20:53.218Z,19.70
2023-03-15T13:23:22.351Z,19.65
2023-03-15T13:26:00.191Z,19.67
2023-03-15T13:28:37.119Z,19.72
2023-03-15T13:31:14.281Z,19.81
2023-03-15T13:33:42.074Z,19.90
2023-03-15T13:36:13.503Z,19.93
2023-03-15T13:38:41.902Z,19.99
2023-03-15T13:41:17.289Z,20.00
2023-03-15T13:43:45.281Z,19.99
2023-03-15T13:46:14.447Z,20.05
2023-03-15T13:48:42.932Z,20.05
2023-03-15T13:51:14.128Z,20.03
2023-03-15T13:53:49.973Z,20.06
2023-03-15T13:56:19.033Z,20.13
2023-03-15T13:58:46.715Z,20.17
2023-03-15T14:01:16.037Z,20.25
2023-03-15T14:03:44.238Z,20.27
2023-03-15T14:06:13.355Z,20.33
2023-03-15T14:08:41.196Z,20.43
2023-03-15T14:11:11.287Z,20.51
2023-03-15T14:13:48.424Z,20.61
2023-03-15T14:16:19.011Z,20.65
2023-03-15T14:18:51.218Z,20.69
2023-03-15T14:21:20.397Z,20.79
2023-03-15T14:23:49.147Z,20.87
2023-03-15T14:26:18.709Z,20.91
2023-03-15T14:28:49.877Z,21.02
2023-03-15T14:31:24.100Z,21.10
2023-03-15T14:33:55.799Z,21.20
2023-03-15T14:36:24.935Z,21.28
2023-03-15T14:38:53.418Z,21.30
2023-03-15T14:41:25.270Z,21.14
2023-03-15T14:43:53.183Z,20.99
2023-03-15T14:46:22.225Z,21.19
2023-03-15T14:48:50.480Z,21.20
2023-03-15T14:51:20.078Z,21.31
2023-03-15T14:53:47.942Z,21.40
2023-03-15T14:56:15.645Z,21.36
2023-03-15T14:58:43.455Z,21.27
2023-03-15T15:01:11.758Z,21.14
2023-03-15T15:03:41.442Z,21.06
2023-03-15T15:06:10.509Z,21.24
2023-03-15T15:08:39.963Z,21.14
2023-03-15T15:11:08.534Z,21.10
2023-03-15T15:13:36.557Z,21.21
2023-03-15T15:16:04.761Z,21.17
2023-03-15T15:18:33.609Z,21.19
2023-03-15T15:21:03.755Z,21.19
2023-03-15T15:23:32.149Z,21.42
2023-03-15T15:26:01.217Z,21.37
2023-03-15T15:28:35.914Z,21.31
2023-03-15T15:31:05.498Z,21.25
2023-03-15T15:33:33.987Z,21.16
2023-03-15T15:36:03.214Z,21.09
2023-03-15T15:38:32.932Z,21.14
2023-03-15T15:41:00.697Z,21.10
2023-03-15T15:43:28.761Z,21.06
2023-03-15T15:45:56.640Z,21.00
2023-03-15T15:48:24.344Z,20.94
2023-03-15T15:50:52.032Z,20.88
2023-03-15T15:53:21.085Z,20.90
2023-03-15T15:55:48.809Z,20.83
2023-03-15T15:58:17.522Z,20.75
2023-03-15T16:00:45.223Z,20.72
2023-03-15T16:03:15.015Z,20.88
2023-03-15T16:05:42.974Z,21.10
2023-03-15T16:08:13.369Z,21.26
2023-03-15T16:10:42.607Z,21.39
2023-03-15T16:13:10.400Z,21.48
2023-03-15T16:15:38.273Z,21.54
2023-03-15T16:18:09.820Z,21.60
2023-03-15T16:20:37.658Z,21.65
2023-03-15T16:23:05.400Z,21.69
2023-03-15T16:25:34.310Z,21.70
2023-03-15T16:28:03.668Z,21.69
2023-03-15T16:30:32.169Z,21.67
2023-03-15T16:32:59.956Z,21.64
2023-03-15T16:35:30.822Z,21.63
2023-03-15T16:37:59.107Z,21.58
2023-03-15T16:40:27.830Z,21.56
2023-03-15T16:42:56.431Z,21.51
2023-03-15T16:45:25.497Z,21.47
2023-03-15T16:47:53.382Z,21.43
2023-03-15T16:50:21.372Z,21.40
2023-03-15T16:52:49.829Z,21.34
2023-03-15T16:55:19.075Z,21.28
2023-03-15T16:57:47.245Z,21.20
2023-03-15T17:00:16.662Z,21.15
2023-03-15T17:02:47.068Z,21.08
2023-03-15T17:05:18.893Z,20.99
2023-03-15T17:07:47.134Z,20.91
2023-03-15T17:10:19.907Z,20.83
2023-03-15T17:12:47.602Z,20.76
2023-03-15T17:15:15.382Z,20.70
2023-03-15T17:17:43.446Z,20.59
2023-03-15T17:20:13.884Z,20.52
2023-03-15T17:22:42.431Z,20.45
2023-03-15T17:25:10.566Z,20.40
2023-03-15T17:27:39.325Z,20.32
2023-03-15T17:30:15.746Z,20.25
2023-03-15T17:32:43.548Z,20.23
2023-03-15T17:35:13.547Z,20.16
2023-03-15T17:37:44.497Z,20.12
2023-03-15T17:40:18.580Z,20.09
2023-03-15T17:42:46.258Z,20.06
2023-03-15T17:45:16.377Z,20.03
2023-03-15T17:47:44.115Z,20.00
2023-03-15T17:50:13.524Z,19.97
2023-03-15T17:52:41.306Z,19.94
2023-03-15T17:55:14.859Z,19.88
2023-03-15T17:57:45.782Z,19.87
2023-03-15T18:00:21.381Z,19.83
2023-03-15T18:02:55.320Z,19.79
2023-03-15T18:05:26.299Z,19.77
2023-03-15T18:08:00.891Z,19.76
2023-03-15T18:10:32.700Z,19.74
2023-03-15T18:13:00.500Z,19.70
2023-03-15T18:15:28.241Z,19.70
2023-03-15T18:17:55.910Z,19.67
2023-03-15T18:20:25.837Z,19.65
2023-03-15T18:22:53.514Z,19.63
2023-03-15T18:25:22.428Z,19.59
2023-03-15T18:27:50.435Z,19.59
2023-03-15T18:30:19.472Z,19.56
2023-03-15T18:32:47.167Z,19.53
2023-03-15T18:35:16.811Z,19.53
2023-03-15T18:37:45.864Z,19.51
2023-03-15T18:40:14.647Z,19.50
2023-03-15T18:42:42.341Z,19.49
2023-03-15T18:45:12.632Z,19.48
2023-03-15T18:47:40.411Z,19.47
2023-03-15T18:50:10.984Z,19.46
2023-03-15T18:52:38.852Z,19.47
2023-03-15T18:55:08.871Z,19.44
2023-03-15T18:57:36.846Z,19.44
2023-03-15T19:00:12.982Z,19.43
2023-03-15T19:02:41.828Z,19.42
2023-03-15T19:05:09.766Z,19.41
2023-03-15T19:07:38.537Z,19.42
2023-03-15T19:10:08.748Z,19.43
2023-03-15T19:12:36.879Z,19.43
2023-03-15T19:15:05.573Z,19.45
2023-03-15T19:17:33.287Z,19.49
2023-03-15T19:20:01.007Z,19.50
2023-03-15T19:22:30.938Z,19.52
2023-03-15T19:24:58.639Z,19.53
2023-03-15T19:27:27.947Z,19.54
2023-03-15T19:29:55.668Z,19.54
2023-03-15T19:32:24.273Z,19.53
2023-03-15T19:34:52.007Z,19.54
2023-03-15T19:37:19.757Z,19.53
2023-03-15T19:39:47.430Z,19.53
2023-03-15T19:42:15.131Z,19.51
2023-03-15T19:44:44.461Z,19.49
2023-03-15T19:47:12.222Z,19.50
2023-03-15T19:49:39.889Z,19.51
2023-03-15T19:52:07.627Z,19.51
2023-03-15T19:54:35.328Z,19.52
2023-03-15T19:57:03.001Z,19.51
2023-03-15T19:59:30.667Z,19.51
2023-03-15T20:01:59.819Z,19.49
2023-03-15T20:04:28.135Z,19.49
2023-03-15T20:06:55.840Z,19.49
2023-03-15T20:09:23.577Z,19.49
2023-03-15T20:11:52.053Z,19.48
2023-03-15T20:14:20.794Z,19.49
2023-03-15T20:16:48.523Z,19.49
2023-03-15T20:19:17.589Z,19.46
2023-03-15T20:21:45.298Z,19.47
2023-03-15T20:24:13.000Z,19.47
2023-03-15T20:26:40.810Z,19.46
2023-03-15T20:29:08.840Z,19.45
2023-03-15T20:31:36.566Z,19.43
2023-03-15T20:34:05.673Z,19.42
2023-03-15T20:36:34.897Z,19.42
2023-03-15T20:39:04.189Z,19.41
2023-03-15T20:41:32.918Z,19.41
2023-03-15T20:44:01.236Z,19.41
2023-03-15T20:46:29.544Z,19.42
2023-03-15T20:48:57.415Z,19.41
2023-03-15T20:51:25.088Z,19.41
2023-03-15T20:53:54.151Z,19.41
2023-03-15T20:56:21.896Z,19.41
2023-03-15T20:58:49.682Z,19.39
2023-03-15T21:01:17.467Z,19.39
2023-03-15T21:03:45.478Z,19.40
2023-03-15T21:06:13.518Z,19.38
2023-03-15T21:08:41.537Z,19.37
2023-03-15T21:11:10.663Z,19.35
2023-03-15T21:13:38.341Z,19.37
2023-03-15T21:16:06.719Z,19.38
2023-03-15T21:18:35.914Z,19.41
2023-03-15T21:21:04.882Z,19.42
2023-03-15T21:23:32.907Z,19.45
2023-03-15T21:26:01.912Z,19.43
2023-03-15T21:28:31.033Z,19.43
2023-03-15T21:30:58.866Z,19.40
2023-03-15T21:33:27.857Z,19.39
2023-03-15T21:35:55.759Z,19.40
2023-03-15T21:38:23.602Z,19.39
2023-03-15T21:40:52.426Z,19.35
2023-03-15T21:43:20.668Z,19.34
2023-03-15T21:45:49.897Z,19.33
2023-03-15T21:48:18.399Z,19.33
2023-03-15T21:50:46.140Z,19.33
2023-03-15T21:53:13.878Z,19.32
2023-03-15T21:55:41.541Z,19.32
2023-03-15T21:58:09.781Z,19.33
2023-03-15T22:00:38.092Z,19.31
2023-03-15T22:03:07.130Z,19.30
2023-03-15T22:05:34.919Z,19.29
2023-03-15T22:08:02.682Z,19.30
2023-03-15T22:10:30.388Z,19.29
2023-03-15T22:12:58.092Z,19.28
2023-03-15T22:15:25.775Z,19.27
2023-03-15T22:17:53.450Z,19.27
2023-03-15T22:20:24.954Z,19.29
2023-03-15T22:22:52.802Z,19.31
2023-03-15T22:25:20.779Z,19.34
2023-03-15T22:27:48.458Z,19.37
2023-03-15T22:30:17.636Z,19.36
2023-03-15T22:32:45.378Z,19.35
2023-03-15T22:35:13.171Z,19.35
2023-03-15T22:37:42.190Z,19.35
2023-03-15T22:40:11.124Z,19.33
2023-03-15T22:42:38.867Z,19.35
2023-03-15T22:45:07.487Z,19.38
2023-03-15T22:47:35.263Z,19.38
2023-03-15T22:50:03.023Z,19.39
2023-03-15T22:52:30.728Z,19.37
2023-03-15T22:54:59.756Z,19.37
2023-03-15T22:57:27.537Z,19.36
2023-03-15T22:59:56.184Z,19.34
2023-03-15T23:02:24.877Z,19.32
2023-03-15T23:04:52.760Z,19.31
2023-03-15T23:07:20.468Z,19.31
2023-03-15T23:09:48.154Z,19.31
2023-03-15T23:12:19.898Z,19.31
2023-03-15T23:14:52.173Z,19.30
2023-03-15T23:17:19.903Z,19.29
2023-03-15T23:19:47.563Z,19.28
2023-03-15T23:22:15.490Z,19.28
2023-03-15T23:24:45.944Z,19.27
2023-03-15T23:27:13.797Z,19.24
2023-03-15T23:29:53.638Z,19.25
2023-03-15T23:32:22.047Z,19.24
2023-03-15T23:34:49.916Z,19.26
2023-03-15T23:37:17.709Z,19.24
2023-03-15T23:39:45.619Z,19.24
2023-03-15T23:42:13.744Z,19.24
2023-03-15T23:44:43.288Z,19.23
2023-03-15T23:47:12.322Z,19.21
2023-03-15T23:49:40.008Z,19.20
2023-03-15T23:52:08.264Z,19.19
2023-03-15T23:54:40.240Z,19.20
2023-03-15T23:57:08.073Z,19.22
2023-03-15T23:59:35.910Z,19.19
